There are multiple Weather-warnings   Click here for more information


Meteo18 Weather Cam more information Meteo18 Weather Cam


warning for Thunderstorms more information blitzortung!


Rain radar more information rain snow radar


Visit our other weather sites:

Template documentation
and downloads

And another site



Weather Underground History page Text

Daily Summary for April 25, 2017 Units:  Both    English   Metric
« Previous Day
Next Day »
Daily Weekly Monthly Yearly Custom
  High: Low: Average:
Temperature: 51.8 °F /  11.0 °C 37.4 °F /  3.0 °C 44.8 °F /  7.1 °C
Dew Point: 45.3 °F /  7.4 °C 35.6 °F /  2.0 °C 39.4 °F /  4.1 °C
Humidity: 93 % 58 % 82 %
Wind Speed: 17 mph /  27.4 km/h - 4 mph /  6.4 km/h
Wind Gust: 21 mph /  33.8 km/h - -
Wind:- - SSW
Pressure: 29.9 in /  1012.4 hPa 29.8 in /  1010.4 hPa -
Precipitation: 0.2 in /  5.1 mm    
Historical Graphs
 
 
Tabular Data for April 25, 2017
Time Temperature Dew Point Pressure Wind Wind Speed Wind Gust Humidity Rainfall Rate (Hourly)
00:02 51.4 °F /  10.8 °C 37.2 °F /  2.9 °C 29.9 in /  1012.4 hPa NW 1 mph /  1.6 km/h 3 mph /  4.8 km/h 58 % 0 in /  0.0 mm
00:12 51.1 °F /  10.6 °C 37.2 °F /  2.9 °C 29.9 in /  1012.1 hPa NW 3 mph /  4.8 km/h 3 mph /  4.8 km/h 59 % 0 in /  0.0 mm
00:17 51.1 °F /  10.6 °C 37.2 °F /  2.9 °C 29.9 in /  1012.1 hPa NW 2 mph /  3.2 km/h 3 mph /  4.8 km/h 59 % 0 in /  0.0 mm
00:22 51.3 °F /  10.7 °C 37 °F /  2.8 °C 29.9 in /  1012.1 hPa NW 1 mph /  1.6 km/h 3 mph /  4.8 km/h 58 % 0 in /  0.0 mm
00:32 51.1 °F /  10.6 °C 36.9 °F /  2.7 °C 29.9 in /  1012.1 hPa NW 2 mph /  3.2 km/h 3 mph /  4.8 km/h 58 % 0 in /  0.0 mm
00:37 51.1 °F /  10.6 °C 36.9 °F /  2.7 °C 29.9 in /  1012.1 hPa NW 2 mph /  3.2 km/h 3 mph /  4.8 km/h 58 % 0 in /  0.0 mm
00:42 50.9 °F /  10.5 °C 37 °F /  2.8 °C 29.9 in /  1012.1 hPa Calm   4 mph /  6.4 km/h 59 % 0 in /  0.0 mm
00:47 50.7 °F /  10.4 °C 36.9 °F /  2.7 °C 29.9 in /  1012.1 hPa NNW 3 mph /  4.8 km/h 4 mph /  6.4 km/h 59 % 0 in /  0.0 mm
00:52 50.5 °F /  10.3 °C 36.7 °F /  2.6 °C 29.9 in /  1012.1 hPa NW 2 mph /  3.2 km/h 3 mph /  4.8 km/h 59 % 0 in /  0.0 mm
00:57 50.5 °F /  10.3 °C 37.2 °F /  2.9 °C 29.9 in /  1012.1 hPa NW 2 mph /  3.2 km/h 3 mph /  4.8 km/h 60 % 0 in /  0.0 mm
01:02 50.4 °F /  10.2 °C 37 °F /  2.8 °C 29.9 in /  1012.1 hPa NW 1 mph /  1.6 km/h 3 mph /  4.8 km/h 60 % 0 in /  0.0 mm
01:07 50.2 °F /  10.1 °C 36.9 °F /  2.7 °C 29.9 in /  1012.1 hPa NW 1 mph /  1.6 km/h 4 mph /  6.4 km/h 60 % 0 in /  0.0 mm
01:12 50.2 °F /  10.1 °C 37.2 °F /  2.9 °C 29.9 in /  1012.1 hPa NW 3 mph /  4.8 km/h 4 mph /  6.4 km/h 61 % 0 in /  0.0 mm
01:17 49.8 °F /  9.9 °C 36.9 °F /  2.7 °C 29.9 in /  1012.1 hPa NW 2 mph /  3.2 km/h 4 mph /  6.4 km/h 61 % 0 in /  0.0 mm
01:22 49.6 °F /  9.8 °C 36.7 °F /  2.6 °C 29.9 in /  1012.1 hPa NNW 3 mph /  4.8 km/h 4 mph /  6.4 km/h 61 % 0 in /  0.0 mm
01:32 49.3 °F /  9.6 °C 37.2 °F /  2.9 °C 29.9 in /  1012.1 hPa NNW 4 mph /  6.4 km/h 4 mph /  6.4 km/h 63 % 0 in /  0.0 mm
01:42 48.4 °F /  9.1 °C 37.6 °F /  3.1 °C 29.9 in /  1012.1 hPa NNW 2 mph /  3.2 km/h 5 mph /  8.0 km/h 66 % 0 in /  0.0 mm
01:47 48.4 °F /  9.1 °C 37.6 °F /  3.1 °C 29.9 in /  1012.1 hPa NNW 3 mph /  4.8 km/h 5 mph /  8.0 km/h 66 % 0 in /  0.0 mm
01:52 48.4 °F /  9.1 °C 37.9 °F /  3.3 °C 29.9 in /  1012.1 hPa North 3 mph /  4.8 km/h 5 mph /  8.0 km/h 67 % 0 in /  0.0 mm
01:57 48 °F /  8.9 °C 37.6 °F /  3.1 °C 29.9 in /  1012.1 hPa NW 2 mph /  3.2 km/h 6 mph /  9.7 km/h 67 % 0 in /  0.0 mm
02:02 48.4 °F /  9.1 °C 38.3 °F /  3.5 °C 29.9 in /  1012.1 hPa NW 3 mph /  4.8 km/h 6 mph /  9.7 km/h 68 % 0 in /  0.0 mm
02:07 48.4 °F /  9.1 °C 37.9 °F /  3.3 °C 29.9 in /  1012.1 hPa NW 3 mph /  4.8 km/h 5 mph /  8.0 km/h 67 % 0 in /  0.0 mm
02:12 48.4 °F /  9.1 °C 38.3 °F /  3.5 °C 29.9 in /  1012.1 hPa NW 3 mph /  4.8 km/h 5 mph /  8.0 km/h 68 % 0 in /  0.0 mm
02:17 48.4 °F /  9.1 °C 38.3 °F /  3.5 °C 29.9 in /  1012.1 hPa NNW 1 mph /  1.6 km/h 5 mph /  8.0 km/h 68 % 0 in /  0.0 mm
02:22 47.7 °F /  8.7 °C 37.9 °F /  3.3 °C 29.9 in /  1011.7 hPa NNE 2 mph /  3.2 km/h 5 mph /  8.0 km/h 69 % 0 in /  0.0 mm
02:27 47.7 °F /  8.7 °C 38.3 °F /  3.5 °C 29.9 in /  1011.7 hPa NNW 2 mph /  3.2 km/h 5 mph /  8.0 km/h 70 % 0 in /  0.0 mm
02:32 47.8 °F /  8.8 °C 38.5 °F /  3.6 °C 29.9 in /  1011.7 hPa NNW 1 mph /  1.6 km/h 5 mph /  8.0 km/h 70 % 0 in /  0.0 mm
02:37 47.7 °F /  8.7 °C 38.3 °F /  3.5 °C 29.9 in /  1011.7 hPa NNW 3 mph /  4.8 km/h 4 mph /  6.4 km/h 70 % 0 in /  0.0 mm
02:42 47.5 °F /  8.6 °C 38.1 °F /  3.4 °C 29.9 in /  1011.7 hPa NW 2 mph /  3.2 km/h 4 mph /  6.4 km/h 70 % 0 in /  0.0 mm
02:47 47.3 °F /  8.5 °C 38.3 °F /  3.5 °C 29.9 in /  1011.7 hPa NW 2 mph /  3.2 km/h 4 mph /  6.4 km/h 71 % 0 in /  0.0 mm
02:52 47.1 °F /  8.4 °C 38.5 °F /  3.6 °C 29.9 in /  1011.7 hPa NW 1 mph /  1.6 km/h 4 mph /  6.4 km/h 72 % 0 in /  0.0 mm
02:57 47.1 °F /  8.4 °C 38.5 °F /  3.6 °C 29.9 in /  1011.7 hPa Calm   3 mph /  4.8 km/h 72 % 0 in /  0.0 mm
03:02 46.9 °F /  8.3 °C 38.3 °F /  3.5 °C 29.9 in /  1011.7 hPa NW 2 mph /  3.2 km/h 3 mph /  4.8 km/h 72 % 0 in /  0.0 mm
03:07 46.9 °F /  8.3 °C 38.7 °F /  3.7 °C 29.9 in /  1011.7 hPa North 1 mph /  1.6 km/h 3 mph /  4.8 km/h 73 % 0 in /  0.0 mm
03:12 46.8 °F /  8.2 °C 38.5 °F /  3.6 °C 29.9 in /  1011.7 hPa NW 1 mph /  1.6 km/h 3 mph /  4.8 km/h 73 % 0 in /  0.0 mm
03:17 46.8 °F /  8.2 °C 38.5 °F /  3.6 °C 29.9 in /  1011.7 hPa NNW 2 mph /  3.2 km/h 4 mph /  6.4 km/h 73 % 0 in /  0.0 mm
03:22 46.8 °F /  8.2 °C 38.8 °F /  3.8 °C 29.9 in /  1011.7 hPa North 3 mph /  4.8 km/h 4 mph /  6.4 km/h 74 % 0 in /  0.0 mm
03:32 46.6 °F /  8.1 °C 38.7 °F /  3.7 °C 29.9 in /  1011.4 hPa WNW 1 mph /  1.6 km/h 4 mph /  6.4 km/h 74 % 0 in /  0.0 mm
03:37 46.2 °F /  7.9 °C 38.5 °F /  3.6 °C 29.9 in /  1011.4 hPa WNW 2 mph /  3.2 km/h 5 mph /  8.0 km/h 74 % 0 in /  0.0 mm
03:42 46 °F /  7.8 °C 38.5 °F /  3.6 °C 29.9 in /  1011.4 hPa NW 1 mph /  1.6 km/h 5 mph /  8.0 km/h 75 % 0 in /  0.0 mm
03:47 45.7 °F /  7.6 °C 38.3 °F /  3.5 °C 29.9 in /  1011.4 hPa WNW 3 mph /  4.8 km/h 4 mph /  6.4 km/h 75 % 0 in /  0.0 mm
03:52 45.7 °F /  7.6 °C 38.3 °F /  3.5 °C 29.9 in /  1011.4 hPa NW 3 mph /  4.8 km/h 4 mph /  6.4 km/h 75 % 0 in /  0.0 mm
04:02 45.9 °F /  7.7 °C 38.7 °F /  3.7 °C 29.9 in /  1011.4 hPa NNW 1 mph /  1.6 km/h 4 mph /  6.4 km/h 76 % 0 in /  0.0 mm
04:12 45.7 °F /  7.6 °C 38.5 °F /  3.6 °C 29.9 in /  1011.4 hPa WNW 1 mph /  1.6 km/h 5 mph /  8.0 km/h 76 % 0 in /  0.0 mm
04:17 45.7 °F /  7.6 °C 38.5 °F /  3.6 °C 29.9 in /  1011.4 hPa NW 2 mph /  3.2 km/h 4 mph /  6.4 km/h 76 % 0 in /  0.0 mm
04:22 45.5 °F /  7.5 °C 38.3 °F /  3.5 °C 29.9 in /  1011.4 hPa WNW 1 mph /  1.6 km/h 4 mph /  6.4 km/h 76 % 0 in /  0.0 mm
04:32 45.1 °F /  7.3 °C 38.3 °F /  3.5 °C 29.9 in /  1011.4 hPa NW 2 mph /  3.2 km/h 2 mph /  3.2 km/h 77 % 0 in /  0.0 mm
04:42 45 °F /  7.2 °C 38.1 °F /  3.4 °C 29.9 in /  1011.4 hPa NNW 1 mph /  1.6 km/h 3 mph /  4.8 km/h 77 % 0 in /  0.0 mm
04:47 44.8 °F /  7.1 °C 38.3 °F /  3.5 °C 29.9 in /  1011.4 hPa NNW 1 mph /  1.6 km/h 2 mph /  3.2 km/h 78 % 0 in /  0.0 mm
04:57 44.8 °F /  7.1 °C 38.3 °F /  3.5 °C 29.9 in /  1011.4 hPa NW 1 mph /  1.6 km/h 2 mph /  3.2 km/h 78 % 0 in /  0.0 mm
05:02 45 °F /  7.2 °C 38.5 °F /  3.6 °C 29.9 in /  1011.4 hPa NW 1 mph /  1.6 km/h 2 mph /  3.2 km/h 78 % 0 in /  0.0 mm
05:12 44.8 °F /  7.1 °C 38.3 °F /  3.5 °C 29.9 in /  1011.4 hPa NW 2 mph /  3.2 km/h 3 mph /  4.8 km/h 78 % 0 in /  0.0 mm
05:17 44.8 °F /  7.1 °C 38.3 °F /  3.5 °C 29.9 in /  1011.1 hPa NNW 2 mph /  3.2 km/h 3 mph /  4.8 km/h 78 % 0 in /  0.0 mm
05:22 44.8 °F /  7.1 °C 38.3 °F /  3.5 °C 29.9 in /  1011.1 hPa NW 1 mph /  1.6 km/h 3 mph /  4.8 km/h 78 % 0 in /  0.0 mm
05:32 44.6 °F /  7.0 °C 38.5 °F /  3.6 °C 29.9 in /  1011.1 hPa NW 1 mph /  1.6 km/h 4 mph /  6.4 km/h 79 % 0 in /  0.0 mm
05:42 44.6 °F /  7.0 °C 38.5 °F /  3.6 °C 29.9 in /  1011.1 hPa NNW 1 mph /  1.6 km/h 4 mph /  6.4 km/h 79 % 0 in /  0.0 mm
05:47 44.4 °F /  6.9 °C 38.3 °F /  3.5 °C 29.9 in /  1011.1 hPa NW 1 mph /  1.6 km/h 3 mph /  4.8 km/h 79 % 0 in /  0.0 mm
05:52 44.6 °F /  7.0 °C 38.5 °F /  3.6 °C 29.9 in /  1011.1 hPa NW 1 mph /  1.6 km/h 3 mph /  4.8 km/h 79 % 0 in /  0.0 mm
06:02 44.6 °F /  7.0 °C 38.5 °F /  3.6 °C 29.9 in /  1011.1 hPa Calm   4 mph /  6.4 km/h 79 % 0 in /  0.0 mm
06:12 44.4 °F /  6.9 °C 38.3 °F /  3.5 °C 29.9 in /  1011.1 hPa Calm   3 mph /  4.8 km/h 79 % 0 in /  0.0 mm
06:17 44.2 °F /  6.8 °C 38.1 °F /  3.4 °C 29.9 in /  1011.1 hPa Calm   2 mph /  3.2 km/h 79 % 0 in /  0.0 mm
06:22 43.9 °F /  6.6 °C 37.8 °F /  3.2 °C 29.9 in /  1011.1 hPa Calm   2 mph /  3.2 km/h 79 % 0 in /  0.0 mm
06:32 43.5 °F /  6.4 °C 38.1 °F /  3.4 °C 29.9 in /  1011.1 hPa Calm   1 mph /  1.6 km/h 81 % 0 in /  0.0 mm
06:42 44.1 °F /  6.7 °C 38.3 °F /  3.5 °C 29.9 in /  1011.1 hPa NW 2 mph /  3.2 km/h 3 mph /  4.8 km/h 80 % 0 in /  0.0 mm
06:52 44.1 °F /  6.7 °C 38.3 °F /  3.5 °C 29.9 in /  1011.1 hPa NW 2 mph /  3.2 km/h 4 mph /  6.4 km/h 80 % 0 in /  0.0 mm
07:02 44.1 °F /  6.7 °C 38.3 °F /  3.5 °C 29.9 in /  1011.1 hPa NW 1 mph /  1.6 km/h 4 mph /  6.4 km/h 80 % 0 in /  0.0 mm
07:12 44.4 °F /  6.9 °C 38.7 °F /  3.7 °C 29.9 in /  1011.1 hPa Calm   4 mph /  6.4 km/h 80 % 0 in /  0.0 mm
07:17 44.8 °F /  7.1 °C 39 °F /  3.9 °C 29.9 in /  1011.1 hPa NW 2 mph /  3.2 km/h 3 mph /  4.8 km/h 80 % 0 in /  0.0 mm
07:22 45 °F /  7.2 °C 38.8 °F /  3.8 °C 29.9 in /  1011.1 hPa NW 2 mph /  3.2 km/h 3 mph /  4.8 km/h 79 % 0 in /  0.0 mm
07:32 44.8 °F /  7.1 °C 38.7 °F /  3.7 °C 29.9 in /  1011.1 hPa NW 2 mph /  3.2 km/h 4 mph /  6.4 km/h 79 % 0 in /  0.0 mm
07:42 45.3 °F /  7.4 °C 39.2 °F /  4.0 °C 29.9 in /  1011.1 hPa NW 2 mph /  3.2 km/h 4 mph /  6.4 km/h 79 % 0 in /  0.0 mm
07:47 45.7 °F /  7.6 °C 39.2 °F /  4.0 °C 29.9 in /  1011.1 hPa NW 1 mph /  1.6 km/h 3 mph /  4.8 km/h 78 % 0 in /  0.0 mm
07:52 46 °F /  7.8 °C 39.6 °F /  4.2 °C 29.9 in /  1011.1 hPa NW 1 mph /  1.6 km/h 3 mph /  4.8 km/h 78 % 0 in /  0.0 mm
07:57 46.4 °F /  8.0 °C 39.9 °F /  4.4 °C 29.9 in /  1011.1 hPa WNW 1 mph /  1.6 km/h 4 mph /  6.4 km/h 78 % 0 in /  0.0 mm
08:02 46.8 °F /  8.2 °C 40.3 °F /  4.6 °C 29.9 in /  1011.1 hPa Calm   4 mph /  6.4 km/h 78 % 0 in /  0.0 mm
08:07 46.9 °F /  8.3 °C 40.5 °F /  4.7 °C 29.9 in /  1011.1 hPa Calm   3 mph /  4.8 km/h 78 % 0 in /  0.0 mm
08:12 47.1 °F /  8.4 °C 40.6 °F /  4.8 °C 29.9 in /  1011.1 hPa Calm   3 mph /  4.8 km/h 78 % 0 in /  0.0 mm
08:17 47.1 °F /  8.4 °C 40.6 °F /  4.8 °C 29.9 in /  1011.1 hPa Calm   2 mph /  3.2 km/h 78 % 0 in /  0.0 mm
08:22 47.5 °F /  8.6 °C 41.4 °F /  5.2 °C 29.9 in /  1011.1 hPa Calm   2 mph /  3.2 km/h 79 % 0 in /  0.0 mm
08:27 47.8 °F /  8.8 °C 41.7 °F /  5.4 °C 29.9 in /  1011.1 hPa North 2 mph /  3.2 km/h 3 mph /  4.8 km/h 79 % 0 in /  0.0 mm
08:32 48.4 °F /  9.1 °C 42.4 °F /  5.8 °C 29.9 in /  1011.1 hPa North 6 mph /  9.7 km/h 6 mph /  9.7 km/h 80 % 0 in /  0.0 mm
08:37 48.9 °F /  9.4 °C 43.3 °F /  6.3 °C 29.9 in /  1011.1 hPa West 1 mph /  1.6 km/h 8 mph /  12.9 km/h 81 % 0 in /  0.0 mm
08:42 49.5 °F /  9.7 °C 43.5 °F /  6.4 °C 29.9 in /  1011.1 hPa North 3 mph /  4.8 km/h 8 mph /  12.9 km/h 80 % 0 in /  0.0 mm
08:47 49.8 °F /  9.9 °C 43.9 °F /  6.6 °C 29.9 in /  1011.1 hPa North 1 mph /  1.6 km/h 8 mph /  12.9 km/h 80 % 0 in /  0.0 mm
08:52 50.4 °F /  10.2 °C 44.1 °F /  6.7 °C 29.9 in /  1011.1 hPa NNE 7 mph /  11.3 km/h 8 mph /  12.9 km/h 79 % 0 in /  0.0 mm
09:02 50.5 °F /  10.3 °C 44.2 °F /  6.8 °C 29.9 in /  1011.1 hPa NNE 2 mph /  3.2 km/h 10 mph /  16.1 km/h 79 % 0 in /  0.0 mm
09:07 50.4 °F /  10.2 °C 44.1 °F /  6.7 °C 29.9 in /  1011.1 hPa North 2 mph /  3.2 km/h 10 mph /  16.1 km/h 79 % 0 in /  0.0 mm
09:12 50.4 °F /  10.2 °C 44.1 °F /  6.7 °C 29.9 in /  1011.1 hPa NW 5 mph /  8.0 km/h 10 mph /  16.1 km/h 79 % 0 in /  0.0 mm
09:17 50.4 °F /  10.2 °C 44.1 °F /  6.7 °C 29.9 in /  1011.1 hPa NE 2 mph /  3.2 km/h 9 mph /  14.5 km/h 79 % 0 in /  0.0 mm
09:22 50.2 °F /  10.1 °C 43.9 °F /  6.6 °C 29.9 in /  1011.1 hPa North 5 mph /  8.0 km/h 9 mph /  14.5 km/h 79 % 0 in /  0.0 mm
09:32 50.4 °F /  10.2 °C 44.4 °F /  6.9 °C 29.9 in /  1011.1 hPa NNE 3 mph /  4.8 km/h 9 mph /  14.5 km/h 80 % 0 in /  0.0 mm
09:42 50.9 °F /  10.5 °C 44.6 °F /  7.0 °C 29.9 in /  1011.4 hPa North 4 mph /  6.4 km/h 8 mph /  12.9 km/h 79 % 0 in /  0.0 mm
09:47 50.9 °F /  10.5 °C 44.6 °F /  7.0 °C 29.9 in /  1011.1 hPa NW 2 mph /  3.2 km/h 10 mph /  16.1 km/h 79 % 0 in /  0.0 mm
09:52 51.3 °F /  10.7 °C 45 °F /  7.2 °C 29.9 in /  1011.1 hPa ENE 4 mph /  6.4 km/h 10 mph /  16.1 km/h 79 % 0 in /  0.0 mm
09:57 51.4 °F /  10.8 °C 45.1 °F /  7.3 °C 29.9 in /  1011.1 hPa WNW 1 mph /  1.6 km/h 6 mph /  9.7 km/h 79 % 0 in /  0.0 mm
10:02 51.8 °F /  11.0 °C 45.1 °F /  7.3 °C 29.9 in /  1011.4 hPa NE 8 mph /  12.9 km/h 8 mph /  12.9 km/h 78 % 0 in /  0.0 mm
10:12 51.1 °F /  10.6 °C 44.4 °F /  6.9 °C 29.9 in /  1011.4 hPa NE 3 mph /  4.8 km/h 10 mph /  16.1 km/h 78 % 0 in /  0.0 mm
10:17 50.9 °F /  10.5 °C 44.2 °F /  6.8 °C 29.9 in /  1011.4 hPa NNW 6 mph /  9.7 km/h 10 mph /  16.1 km/h 78 % 0 in /  0.0 mm
10:22 50.7 °F /  10.4 °C 44.4 °F /  6.9 °C 29.9 in /  1011.7 hPa NNE 5 mph /  8.0 km/h 10 mph /  16.1 km/h 79 % 0 in /  0.0 mm
10:32 50.5 °F /  10.3 °C 44.2 °F /  6.8 °C 29.9 in /  1011.7 hPa NNW 2 mph /  3.2 km/h 9 mph /  14.5 km/h 79 % 0 in /  0.0 mm
10:42 50.7 °F /  10.4 °C 44.8 °F /  7.1 °C 29.9 in /  1011.7 hPa North 4 mph /  6.4 km/h 8 mph /  12.9 km/h 80 % 0 in /  0.0 mm
10:52 50.7 °F /  10.4 °C 44.8 °F /  7.1 °C 29.9 in /  1011.7 hPa ENE 3 mph /  4.8 km/h 8 mph /  12.9 km/h 80 % 0 in /  0.0 mm
10:57 51.3 °F /  10.7 °C 45.3 °F /  7.4 °C 29.9 in /  1011.7 hPa North 4 mph /  6.4 km/h 10 mph /  16.1 km/h 80 % 0 in /  0.0 mm
11:06 51.6 °F /  10.9 °C 45.3 °F /  7.4 °C 29.9 in /  1011.7 hPa NNW 1 mph /  1.6 km/h 10 mph /  16.1 km/h 79 % 0 in /  0.0 mm
11:12 51.1 °F /  10.6 °C 44.1 °F /  6.7 °C 29.9 in /  1011.4 hPa North 7 mph /  11.3 km/h 8 mph /  12.9 km/h 77 % 0 in /  0.0 mm
11:17 50.7 °F /  10.4 °C 44.4 °F /  6.9 °C 29.9 in /  1011.7 hPa NNE 6 mph /  9.7 km/h 14 mph /  22.5 km/h 79 % 0 in /  0.0 mm
11:22 50.5 °F /  10.3 °C 44.2 °F /  6.8 °C 29.9 in /  1011.7 hPa NNE 9 mph /  14.5 km/h 14 mph /  22.5 km/h 79 % 0 in /  0.0 mm
11:27 50.4 °F /  10.2 °C 44.4 °F /  6.9 °C 29.9 in /  1011.7 hPa North 8 mph /  12.9 km/h 14 mph /  22.5 km/h 80 % 0 in /  0.0 mm
11:32 50 °F /  10.0 °C 44.4 °F /  6.9 °C 29.9 in /  1011.7 hPa NE 2 mph /  3.2 km/h 14 mph /  22.5 km/h 81 % 0 in /  0.0 mm
11:37 49.6 °F /  9.8 °C 43.7 °F /  6.5 °C 29.9 in /  1011.7 hPa NE 1 mph /  1.6 km/h 12 mph /  19.3 km/h 80 % 0 in /  0.0 mm
11:42 49.3 °F /  9.6 °C 43.7 °F /  6.5 °C 29.9 in /  1011.7 hPa North 5 mph /  8.0 km/h 12 mph /  19.3 km/h 81 % 0 in /  0.0 mm
11:47 49.3 °F /  9.6 °C 44.1 °F /  6.7 °C 29.9 in /  1011.7 hPa NNE 6 mph /  9.7 km/h 12 mph /  19.3 km/h 82 % 0 in /  0.0 mm
11:52 49.3 °F /  9.6 °C 44.1 °F /  6.7 °C 29.9 in /  1011.7 hPa NE 5 mph /  8.0 km/h 12 mph /  19.3 km/h 82 % 0 in /  0.0 mm
11:57 49.5 °F /  9.7 °C 44.6 °F /  7.0 °C 29.9 in /  1011.7 hPa NW 4 mph /  6.4 km/h 12 mph /  19.3 km/h 83 % 0 in /  0.0 mm
12:02 49.3 °F /  9.6 °C 44.1 °F /  6.7 °C 29.9 in /  1011.7 hPa NNE 7 mph /  11.3 km/h 12 mph /  19.3 km/h 82 % 0 in /  0.0 mm
12:07 49.3 °F /  9.6 °C 44.1 °F /  6.7 °C 29.9 in /  1011.7 hPa NW 5 mph /  8.0 km/h 12 mph /  19.3 km/h 82 % 0 in /  0.0 mm
12:12 49.3 °F /  9.6 °C 44.1 °F /  6.7 °C 29.9 in /  1011.7 hPa NNW 4 mph /  6.4 km/h 12 mph /  19.3 km/h 82 % 0 in /  0.0 mm
12:17 49.3 °F /  9.6 °C 44.1 °F /  6.7 °C 29.9 in /  1011.7 hPa North 8 mph /  12.9 km/h 12 mph /  19.3 km/h 82 % 0 in /  0.0 mm
12:22 49.3 °F /  9.6 °C 44.1 °F /  6.7 °C 29.9 in /  1011.7 hPa North 6 mph /  9.7 km/h 12 mph /  19.3 km/h 82 % 0 in /  0.0 mm
12:32 49.5 °F /  9.7 °C 43.9 °F /  6.6 °C 29.9 in /  1011.4 hPa NNW 5 mph /  8.0 km/h 12 mph /  19.3 km/h 81 % 0 in /  0.0 mm
12:42 49.3 °F /  9.6 °C 44.1 °F /  6.7 °C 29.9 in /  1011.4 hPa NNW 4 mph /  6.4 km/h 12 mph /  19.3 km/h 82 % 0 in /  0.0 mm
12:52 48.9 °F /  9.4 °C 44.2 °F /  6.8 °C 29.9 in /  1011.4 hPa North 3 mph /  4.8 km/h 12 mph /  19.3 km/h 84 % 0 in /  0.0 mm
12:57 48.6 °F /  9.2 °C 43.9 °F /  6.6 °C 29.9 in /  1011.4 hPa North 6 mph /  9.7 km/h 12 mph /  19.3 km/h 84 % 0 in /  0.0 mm
13:02 48.4 °F /  9.1 °C 43.7 °F /  6.5 °C 29.9 in /  1011.4 hPa NNW 8 mph /  12.9 km/h 12 mph /  19.3 km/h 84 % 0 in /  0.0 mm
13:12 47.8 °F /  8.8 °C 43.5 °F /  6.4 °C 29.9 in /  1011.4 hPa NNW 6 mph /  9.7 km/h 14 mph /  22.5 km/h 85 % 0 in /  0.0 mm
13:17 48 °F /  8.9 °C 44.1 °F /  6.7 °C 29.9 in /  1011.4 hPa NNW 4 mph /  6.4 km/h 14 mph /  22.5 km/h 86 % 0 in /  0.0 mm
13:22 48 °F /  8.9 °C 43.7 °F /  6.5 °C 29.9 in /  1011.4 hPa NW 2 mph /  3.2 km/h 12 mph /  19.3 km/h 85 % 0 in /  0.0 mm
13:27 48 °F /  8.9 °C 43.7 °F /  6.5 °C 29.9 in /  1011.4 hPa NNE 9 mph /  14.5 km/h 14 mph /  22.5 km/h 85 % 0 in /  0.0 mm
13:32 47.8 °F /  8.8 °C 43.5 °F /  6.4 °C 29.9 in /  1011.4 hPa NNW 11 mph /  17.7 km/h 14 mph /  22.5 km/h 85 % 0 in /  0.0 mm
13:37 47.3 °F /  8.5 °C 43 °F /  6.1 °C 29.9 in /  1011.4 hPa North 12 mph /  19.3 km/h 15 mph /  24.1 km/h 85 % 0 in /  0.0 mm
13:42 46.8 °F /  8.2 °C 42.4 °F /  5.8 °C 29.9 in /  1011.4 hPa North 10 mph /  16.1 km/h 15 mph /  24.1 km/h 85 % 0 in /  0.0 mm
13:47 46.6 °F /  8.1 °C 42.3 °F /  5.7 °C 29.9 in /  1011.4 hPa NNW 8 mph /  12.9 km/h 16 mph /  25.7 km/h 85 % 0 in /  0.0 mm
13:52 46.2 °F /  7.9 °C 41.9 °F /  5.5 °C 29.9 in /  1011.1 hPa NNW 10 mph /  16.1 km/h 16 mph /  25.7 km/h 85 % 0 in /  0.0 mm
13:57 45.9 °F /  7.7 °C 41.4 °F /  5.2 °C 29.9 in /  1011.1 hPa NNW 13 mph /  20.9 km/h 17 mph /  27.4 km/h 84 % 0.01 in /  0.3 mm
14:02 45.9 °F /  7.7 °C 41.4 °F /  5.2 °C 29.9 in /  1011.1 hPa NNW 5 mph /  8.0 km/h 17 mph /  27.4 km/h 84 % 0.01 in /  0.3 mm
14:12 45.3 °F /  7.4 °C 40.8 °F /  4.9 °C 29.9 in /  1011.1 hPa Calm   17 mph /  27.4 km/h 84 % 0.01 in /  0.3 mm
14:17 45.3 °F /  7.4 °C 40.8 °F /  4.9 °C 29.9 in /  1011.1 hPa NNE 8 mph /  12.9 km/h 16 mph /  25.7 km/h 84 % 0.01 in /  0.3 mm
14:22 45.1 °F /  7.3 °C 40.6 °F /  4.8 °C 29.9 in /  1011.1 hPa NNW 6 mph /  9.7 km/h 16 mph /  25.7 km/h 84 % 0.01 in /  0.3 mm
14:32 44.8 °F /  7.1 °C 39.9 °F /  4.4 °C 29.9 in /  1011.4 hPa NNE 7 mph /  11.3 km/h 16 mph /  25.7 km/h 83 % 0.01 in /  0.3 mm
14:37 44.6 °F /  7.0 °C 40.1 °F /  4.5 °C 29.9 in /  1011.4 hPa NE 7 mph /  11.3 km/h 19 mph /  30.6 km/h 84 % 0.01 in /  0.3 mm
14:42 44.4 °F /  6.9 °C 40.3 °F /  4.6 °C 29.9 in /  1011.1 hPa NE 10 mph /  16.1 km/h 19 mph /  30.6 km/h 85 % 0.01 in /  0.3 mm
14:47 44.2 °F /  6.8 °C 40.1 °F /  4.5 °C 29.9 in /  1011.1 hPa NNW 7 mph /  11.3 km/h 19 mph /  30.6 km/h 85 % 0.01 in /  0.3 mm
14:52 44.1 °F /  6.7 °C 39.9 °F /  4.4 °C 29.9 in /  1011.1 hPa NNE 12 mph /  19.3 km/h 16 mph /  25.7 km/h 85 % 0.01 in /  0.3 mm
14:57 44.1 °F /  6.7 °C 40.1 °F /  4.5 °C 29.9 in /  1011.1 hPa NNW 7 mph /  11.3 km/h 13 mph /  20.9 km/h 86 % 0 in /  0.0 mm
15:02 44.1 °F /  6.7 °C 40.5 °F /  4.7 °C 29.9 in /  1011.1 hPa NNW 9 mph /  14.5 km/h 13 mph /  20.9 km/h 87 % 0 in /  0.0 mm
15:12 44.1 °F /  6.7 °C 40.8 °F /  4.9 °C 29.9 in /  1011.1 hPa North 9 mph /  14.5 km/h 13 mph /  20.9 km/h 88 % 0 in /  0.0 mm
15:17 44.1 °F /  6.7 °C 40.8 °F /  4.9 °C 29.8 in /  1010.7 hPa NNW 3 mph /  4.8 km/h 13 mph /  20.9 km/h 88 % 0.01 in /  0.3 mm
15:22 44.1 °F /  6.7 °C 40.8 °F /  4.9 °C 29.8 in /  1010.7 hPa NE 13 mph /  20.9 km/h 15 mph /  24.1 km/h 88 % 0.01 in /  0.3 mm
15:32 44.1 °F /  6.7 °C 40.5 °F /  4.7 °C 29.8 in /  1010.7 hPa NW 13 mph /  20.9 km/h 19 mph /  30.6 km/h 87 % 0.01 in /  0.3 mm
15:42 43.9 °F /  6.6 °C 40.3 °F /  4.6 °C 29.8 in /  1010.7 hPa North 5 mph /  8.0 km/h 18 mph /  29.0 km/h 87 % 0.02 in /  0.5 mm
15:47 43.9 °F /  6.6 °C 40.3 °F /  4.6 °C 29.8 in /  1010.7 hPa NNE 2 mph /  3.2 km/h 16 mph /  25.7 km/h 87 % 0.02 in /  0.5 mm
15:52 43.5 °F /  6.4 °C 39.6 °F /  4.2 °C 29.8 in /  1010.7 hPa North 17 mph /  27.4 km/h 17 mph /  27.4 km/h 86 % 0.02 in /  0.5 mm
15:57 43.3 °F /  6.3 °C 39.7 °F /  4.3 °C 29.8 in /  1010.7 hPa NNE 10 mph /  16.1 km/h 19 mph /  30.6 km/h 87 % 0.02 in /  0.5 mm
16:02 43.3 °F /  6.3 °C 40.1 °F /  4.5 °C 29.8 in /  1010.7 hPa NW 2 mph /  3.2 km/h 19 mph /  30.6 km/h 88 % 0.02 in /  0.5 mm
16:12 42.8 °F /  6.0 °C 39.2 °F /  4.0 °C 29.8 in /  1010.7 hPa NNW 8 mph /  12.9 km/h 19 mph /  30.6 km/h 87 % 0.02 in /  0.5 mm
16:17 42.4 °F /  5.8 °C 39.2 °F /  4.0 °C 29.8 in /  1010.7 hPa NNE 4 mph /  6.4 km/h 17 mph /  27.4 km/h 88 % 0.02 in /  0.5 mm
16:22 42.4 °F /  5.8 °C 39.4 °F /  4.1 °C 29.8 in /  1010.7 hPa NE 10 mph /  16.1 km/h 17 mph /  27.4 km/h 89 % 0.02 in /  0.5 mm
16:32 42.1 °F /  5.6 °C 38.8 °F /  3.8 °C 29.8 in /  1010.7 hPa NNW 7 mph /  11.3 km/h 15 mph /  24.1 km/h 88 % 0.02 in /  0.5 mm
16:37 42.1 °F /  5.6 °C 39 °F /  3.9 °C 29.8 in /  1010.7 hPa North 8 mph /  12.9 km/h 21 mph /  33.8 km/h 89 % 0.01 in /  0.3 mm
16:42 42.1 °F /  5.6 °C 39 °F /  3.9 °C 29.8 in /  1010.7 hPa NNE 2 mph /  3.2 km/h 21 mph /  33.8 km/h 89 % 0.01 in /  0.3 mm
16:52 41.9 °F /  5.5 °C 39.2 °F /  4.0 °C 29.8 in /  1010.4 hPa North 12 mph /  19.3 km/h 14 mph /  22.5 km/h 90 % 0.01 in /  0.3 mm
16:57 41.9 °F /  5.5 °C 39.2 °F /  4.0 °C 29.8 in /  1010.4 hPa NNE 4 mph /  6.4 km/h 16 mph /  25.7 km/h 90 % 0.02 in /  0.5 mm
17:02 41.7 °F /  5.4 °C 39 °F /  3.9 °C 29.8 in /  1010.4 hPa NNE 3 mph /  4.8 km/h 16 mph /  25.7 km/h 90 % 0.02 in /  0.5 mm
17:07 41.5 °F /  5.3 °C 38.8 °F /  3.8 °C 29.8 in /  1010.4 hPa NNE 10 mph /  16.1 km/h 16 mph /  25.7 km/h 90 % 0.01 in /  0.3 mm
17:12 41.5 °F /  5.3 °C 38.8 °F /  3.8 °C 29.8 in /  1010.4 hPa NNW 7 mph /  11.3 km/h 16 mph /  25.7 km/h 90 % 0.01 in /  0.3 mm
17:22 41.5 °F /  5.3 °C 39.2 °F /  4.0 °C 29.8 in /  1010.4 hPa NNE 6 mph /  9.7 km/h 16 mph /  25.7 km/h 91 % 0.01 in /  0.3 mm
17:32 41.4 °F /  5.2 °C 38.7 °F /  3.7 °C 29.8 in /  1010.4 hPa NNW 5 mph /  8.0 km/h 16 mph /  25.7 km/h 90 % 0.01 in /  0.3 mm
17:37 41.4 °F /  5.2 °C 38.7 °F /  3.7 °C 29.8 in /  1010.4 hPa NNW 4 mph /  6.4 km/h 14 mph /  22.5 km/h 90 % 0.02 in /  0.5 mm
17:42 41.2 °F /  5.1 °C 38.5 °F /  3.6 °C 29.8 in /  1010.4 hPa North 3 mph /  4.8 km/h 14 mph /  22.5 km/h 90 % 0.02 in /  0.5 mm
17:47 41.2 °F /  5.1 °C 38.8 °F /  3.8 °C 29.8 in /  1010.4 hPa North 8 mph /  12.9 km/h 13 mph /  20.9 km/h 91 % 0.02 in /  0.5 mm
17:52 41.2 °F /  5.1 °C 38.8 °F /  3.8 °C 29.8 in /  1010.4 hPa NNE 5 mph /  8.0 km/h 12 mph /  19.3 km/h 91 % 0.02 in /  0.5 mm
17:57 41.2 °F /  5.1 °C 38.8 °F /  3.8 °C 29.8 in /  1010.4 hPa NNE 5 mph /  8.0 km/h 14 mph /  22.5 km/h 91 % 0.03 in /  0.8 mm
18:02 41.2 °F /  5.1 °C 39 °F /  3.9 °C 29.8 in /  1010.4 hPa North 4 mph /  6.4 km/h 14 mph /  22.5 km/h 92 % 0.03 in /  0.8 mm
18:12 41.4 °F /  5.2 °C 39.2 °F /  4.0 °C 29.8 in /  1010.4 hPa ENE 4 mph /  6.4 km/h 14 mph /  22.5 km/h 92 % 0.03 in /  0.8 mm
18:17 41.2 °F /  5.1 °C 39 °F /  3.9 °C 29.8 in /  1010.4 hPa North 6 mph /  9.7 km/h 11 mph /  17.7 km/h 92 % 0.04 in /  1.0 mm
18:22 40.8 °F /  4.9 °C 38.5 °F /  3.6 °C 29.8 in /  1010.4 hPa NE 13 mph /  20.9 km/h 13 mph /  20.9 km/h 91 % 0.04 in /  1.0 mm
18:32 40.6 °F /  4.8 °C 38.3 °F /  3.5 °C 29.8 in /  1010.4 hPa NE 12 mph /  19.3 km/h 16 mph /  25.7 km/h 91 % 0.05 in /  1.3 mm
18:37 40.6 °F /  4.8 °C 38.3 °F /  3.5 °C 29.8 in /  1010.4 hPa ENE 4 mph /  6.4 km/h 16 mph /  25.7 km/h 91 % 0.04 in /  1.0 mm
18:42 40.6 °F /  4.8 °C 38.3 °F /  3.5 °C 29.8 in /  1010.7 hPa NNE 5 mph /  8.0 km/h 16 mph /  25.7 km/h 91 % 0.04 in /  1.0 mm
18:47 40.5 °F /  4.7 °C 38.1 °F /  3.4 °C 29.8 in /  1010.4 hPa NNE 6 mph /  9.7 km/h 16 mph /  25.7 km/h 91 % 0.04 in /  1.0 mm
18:52 40.5 °F /  4.7 °C 38.1 °F /  3.4 °C 29.8 in /  1010.4 hPa NNW 8 mph /  12.9 km/h 16 mph /  25.7 km/h 91 % 0.04 in /  1.0 mm
18:57 40.5 °F /  4.7 °C 38.1 °F /  3.4 °C 29.8 in /  1010.4 hPa NW 3 mph /  4.8 km/h 14 mph /  22.5 km/h 91 % 0.03 in /  0.8 mm
19:02 40.5 °F /  4.7 °C 38.3 °F /  3.5 °C 29.8 in /  1010.4 hPa NNE 7 mph /  11.3 km/h 14 mph /  22.5 km/h 92 % 0.03 in /  0.8 mm
19:07 40.3 °F /  4.6 °C 37.9 °F /  3.3 °C 29.8 in /  1010.4 hPa NNW 7 mph /  11.3 km/h 12 mph /  19.3 km/h 91 % 0.04 in /  1.0 mm
19:12 40.3 °F /  4.6 °C 38.1 °F /  3.4 °C 29.8 in /  1010.7 hPa NNW 7 mph /  11.3 km/h 12 mph /  19.3 km/h 92 % 0.04 in /  1.0 mm
19:22 39.7 °F /  4.3 °C 37.4 °F /  3.0 °C 29.8 in /  1010.7 hPa NNW 8 mph /  12.9 km/h 12 mph /  19.3 km/h 91 % 0.04 in /  1.0 mm
19:27 39.7 °F /  4.3 °C 37.4 °F /  3.0 °C 29.8 in /  1010.7 hPa NE 6 mph /  9.7 km/h 17 mph /  27.4 km/h 91 % 0.04 in /  1.0 mm
19:32 39.6 °F /  4.2 °C 37.2 °F /  2.9 °C 29.8 in /  1010.4 hPa NNW 6 mph /  9.7 km/h 17 mph /  27.4 km/h 91 % 0.04 in /  1.0 mm
19:37 39.4 °F /  4.1 °C 37 °F /  2.8 °C 29.8 in /  1010.4 hPa NE 5 mph /  8.0 km/h 16 mph /  25.7 km/h 91 % 0.04 in /  1.0 mm
19:42 39.4 °F /  4.1 °C 37 °F /  2.8 °C 29.8 in /  1010.4 hPa NNW 7 mph /  11.3 km/h 16 mph /  25.7 km/h 91 % 0.04 in /  1.0 mm
19:52 39.2 °F /  4.0 °C 37 °F /  2.8 °C 29.8 in /  1010.7 hPa NE 8 mph /  12.9 km/h 15 mph /  24.1 km/h 92 % 0.05 in /  1.3 mm
19:57 38.8 °F /  3.8 °C 36.5 °F /  2.5 °C 29.8 in /  1010.7 hPa ENE 5 mph /  8.0 km/h 18 mph /  29.0 km/h 91 % 0.06 in /  1.5 mm
20:02 38.7 °F /  3.7 °C 36.3 °F /  2.4 °C 29.8 in /  1010.7 hPa NE 8 mph /  12.9 km/h 18 mph /  29.0 km/h 91 % 0.06 in /  1.5 mm
20:12 38.5 °F /  3.6 °C 36.1 °F /  2.3 °C 29.8 in /  1010.7 hPa ENE 2 mph /  3.2 km/h 18 mph /  29.0 km/h 91 % 0.05 in /  1.3 mm
20:17 38.3 °F /  3.5 °C 36 °F /  2.2 °C 29.8 in /  1010.7 hPa NNW 6 mph /  9.7 km/h 19 mph /  30.6 km/h 91 % 0.04 in /  1.0 mm
20:27 38.1 °F /  3.4 °C 35.8 °F /  2.1 °C 29.8 in /  1010.7 hPa NE 3 mph /  4.8 km/h 15 mph /  24.1 km/h 91 % 0.04 in /  1.0 mm
20:32 38.1 °F /  3.4 °C 36 °F /  2.2 °C 29.8 in /  1010.7 hPa NNW 7 mph /  11.3 km/h 15 mph /  24.1 km/h 92 % 0.04 in /  1.0 mm
20:42 37.9 °F /  3.3 °C 35.8 °F /  2.1 °C 29.8 in /  1010.7 hPa NE 5 mph /  8.0 km/h 15 mph /  24.1 km/h 92 % 0.02 in /  0.5 mm
20:47 37.9 °F /  3.3 °C 35.8 °F /  2.1 °C 29.8 in /  1010.7 hPa NNW 4 mph /  6.4 km/h 14 mph /  22.5 km/h 92 % 0.02 in /  0.5 mm
20:52 37.9 °F /  3.3 °C 35.8 °F /  2.1 °C 29.8 in /  1010.7 hPa NE 3 mph /  4.8 km/h 14 mph /  22.5 km/h 92 % 0.02 in /  0.5 mm
20:57 37.8 °F /  3.2 °C 35.6 °F /  2.0 °C 29.9 in /  1011.1 hPa NE 5 mph /  8.0 km/h 12 mph /  19.3 km/h 92 % 0.02 in /  0.5 mm
21:02 37.8 °F /  3.2 °C 35.6 °F /  2.0 °C 29.9 in /  1011.1 hPa NE 3 mph /  4.8 km/h 12 mph /  19.3 km/h 92 % 0.02 in /  0.5 mm
21:12 37.8 °F /  3.2 °C 36 °F /  2.2 °C 29.9 in /  1011.1 hPa NW 4 mph /  6.4 km/h 12 mph /  19.3 km/h 93 % 0.02 in /  0.5 mm
21:17 37.8 °F /  3.2 °C 35.6 °F /  2.0 °C 29.9 in /  1011.1 hPa North 5 mph /  8.0 km/h 11 mph /  17.7 km/h 92 % 0.03 in /  0.8 mm
21:22 37.8 °F /  3.2 °C 35.6 °F /  2.0 °C 29.9 in /  1011.1 hPa NE 5 mph /  8.0 km/h 12 mph /  19.3 km/h 92 % 0.03 in /  0.8 mm
21:32 37.8 °F /  3.2 °C 35.6 °F /  2.0 °C 29.9 in /  1011.1 hPa NNE 4 mph /  6.4 km/h 12 mph /  19.3 km/h 92 % 0.02 in /  0.5 mm
21:37 37.8 °F /  3.2 °C 36 °F /  2.2 °C 29.9 in /  1011.1 hPa NE 9 mph /  14.5 km/h 9 mph /  14.5 km/h 93 % 0.02 in /  0.5 mm
21:42 37.8 °F /  3.2 °C 35.6 °F /  2.0 °C 29.9 in /  1011.4 hPa NNE 5 mph /  8.0 km/h 8 mph /  12.9 km/h 92 % 0.02 in /  0.5 mm
21:47 37.8 °F /  3.2 °C 35.6 °F /  2.0 °C 29.9 in /  1011.1 hPa NNE 6 mph /  9.7 km/h 12 mph /  19.3 km/h 92 % 0.02 in /  0.5 mm
21:52 37.8 °F /  3.2 °C 35.6 °F /  2.0 °C 29.9 in /  1011.4 hPa NE 3 mph /  4.8 km/h 12 mph /  19.3 km/h 92 % 0.02 in /  0.5 mm
22:02 37.6 °F /  3.1 °C 35.8 °F /  2.1 °C 29.9 in /  1011.4 hPa NE 3 mph /  4.8 km/h 10 mph /  16.1 km/h 93 % 0.02 in /  0.5 mm
22:12 37.6 °F /  3.1 °C 35.8 °F /  2.1 °C 29.9 in /  1011.4 hPa ENE 8 mph /  12.9 km/h 10 mph /  16.1 km/h 93 % 0.02 in /  0.5 mm
22:17 37.6 °F /  3.1 °C 35.8 °F /  2.1 °C 29.9 in /  1011.4 hPa NE 4 mph /  6.4 km/h 10 mph /  16.1 km/h 93 % 0.01 in /  0.3 mm
22:22 37.6 °F /  3.1 °C 35.8 °F /  2.1 °C 29.9 in /  1011.4 hPa NE 4 mph /  6.4 km/h 10 mph /  16.1 km/h 93 % 0.01 in /  0.3 mm
22:27 37.6 °F /  3.1 °C 35.8 °F /  2.1 °C 29.9 in /  1011.1 hPa ENE 3 mph /  4.8 km/h 9 mph /  14.5 km/h 93 % 0.01 in /  0.3 mm
22:32 37.6 °F /  3.1 °C 35.8 °F /  2.1 °C 29.9 in /  1011.1 hPa ENE 4 mph /  6.4 km/h 9 mph /  14.5 km/h 93 % 0.01 in /  0.3 mm
22:37 37.6 °F /  3.1 °C 35.8 °F /  2.1 °C 29.9 in /  1011.1 hPa ENE 2 mph /  3.2 km/h 7 mph /  11.3 km/h 93 % 0.01 in /  0.3 mm
22:42 37.6 °F /  3.1 °C 35.8 °F /  2.1 °C 29.9 in /  1011.1 hPa East 4 mph /  6.4 km/h 7 mph /  11.3 km/h 93 % 0.01 in /  0.3 mm
22:52 37.6 °F /  3.1 °C 35.8 °F /  2.1 °C 29.9 in /  1011.7 hPa ENE 1 mph /  1.6 km/h 7 mph /  11.3 km/h 93 % 0.02 in /  0.5 mm
22:57 37.6 °F /  3.1 °C 35.8 °F /  2.1 °C 29.9 in /  1011.4 hPa NE 1 mph /  1.6 km/h 6 mph /  9.7 km/h 93 % 0.01 in /  0.3 mm
23:07 37.4 °F /  3.0 °C 35.6 °F /  2.0 °C 29.9 in /  1011.4 hPa NNE 3 mph /  4.8 km/h 4 mph /  6.4 km/h 93 % 0.01 in /  0.3 mm
23:12 37.4 °F /  3.0 °C 35.6 °F /  2.0 °C 29.9 in /  1011.7 hPa Calm   4 mph /  6.4 km/h 93 % 0.01 in /  0.3 mm
23:17 37.4 °F /  3.0 °C 35.6 °F /  2.0 °C 29.9 in /  1011.7 hPa Calm   4 mph /  6.4 km/h 93 % 0.01 in /  0.3 mm
23:22 37.4 °F /  3.0 °C 35.6 °F /  2.0 °C 29.9 in /  1011.4 hPa North 1 mph /  1.6 km/h 3 mph /  4.8 km/h 93 % 0.01 in /  0.3 mm
23:27 37.6 °F /  3.1 °C 35.8 °F /  2.1 °C 29.9 in /  1011.4 hPa North 2 mph /  3.2 km/h 2 mph /  3.2 km/h 93 % 0.01 in /  0.3 mm
23:32 37.4 °F /  3.0 °C 35.6 °F /  2.0 °C 29.9 in /  1011.7 hPa Calm   2 mph /  3.2 km/h 93 % 0.01 in /  0.3 mm
23:37 37.6 °F /  3.1 °C 35.8 °F /  2.1 °C 29.9 in /  1011.7 hPa Calm   2 mph /  3.2 km/h 93 % 0.01 in /  0.3 mm
23:42 37.4 °F /  3.0 °C 35.6 °F /  2.0 °C 29.9 in /  1011.7 hPa Calm   2 mph /  3.2 km/h 93 % 0.01 in /  0.3 mm
23:52 37.4 °F /  3.0 °C 35.6 °F /  2.0 °C 29.9 in /  1011.7 hPa Calm     93 % 0 in /  0.0 mm
23:57 37.4 °F /  3.0 °C 35.6 °F /  2.0 °C 29.9 in /  1011.7 hPa Calm     93 % 0 in /  0.0 mm
Meteo18
Compliments of Weather Underground - 4 mb

Script developed by  Jim McMurry - jmcmurry@mwt.net Adapted for the template by  Wim van der Kuil - Leuven-Template.eu

You find our weather info also at:

European Weather Network

Weather Underground

Equipment we use:

Weather-station
Davis Vue

Weather-program
Meteohub

Weather-server
Raspberry PI 2 B+

Provider
1 and 1

Davis Vue

Meteohub

Raspberry PI 2 B+

1 and 1